createdAt,value
2018-04-22T00:00:51.916Z,13.5
2018-04-22T00:11:06.395Z,13
2018-04-22T00:21:21.059Z,12.8
2018-04-22T00:31:34.822Z,12.3
2018-04-22T00:41:49.766Z,12.3
2018-04-22T00:52:04.480Z,12.4
2018-04-22T01:02:19.866Z,12.7
2018-04-22T01:12:34.741Z,12.7
2018-04-22T01:22:50.087Z,12.4
2018-04-22T01:33:03.701Z,12.4
2018-04-22T01:43:17.635Z,11.9
2018-04-22T01:53:32.901Z,12.1
2018-04-22T02:03:47.541Z,12.3
2018-04-22T02:14:02.534Z,11.8
2018-04-22T02:24:17.642Z,11.6
2018-04-22T02:34:32.582Z,11.7
2018-04-22T02:44:47.652Z,11.8
2018-04-22T02:55:01.566Z,11.1
2018-04-22T03:05:15.704Z,11.3
2018-04-22T03:15:30.299Z,10.8
2018-04-22T03:25:44.033Z,10.3
2018-04-22T03:35:58.589Z,10.4
2018-04-22T03:46:12.585Z,10.4
2018-04-22T03:56:26.465Z,10.5
2018-04-22T04:06:40.538Z,10.4
2018-04-22T04:16:55.260Z,10.9
2018-04-22T04:27:09.544Z,11.2
2018-04-22T04:37:24.506Z,11.9
2018-04-22T04:47:38.473Z,12.1
2018-04-22T04:57:54.079Z,12.7
2018-04-22T05:08:08.914Z,12.7
2018-04-22T05:18:23.376Z,12.8
2018-04-22T05:28:38.564Z,12.8
2018-04-22T05:38:53.065Z,13.1
2018-04-22T05:49:08.060Z,13.3
2018-04-22T05:59:22.388Z,13.6
2018-04-22T06:09:37.117Z,14
2018-04-22T06:19:51.267Z,14.4
2018-04-22T06:30:06.117Z,14.9
2018-04-22T06:40:20.671Z,15.8
2018-04-22T06:50:34.954Z,16.4
2018-04-22T07:00:48.884Z,16
2018-04-22T07:11:04.351Z,16.7
2018-04-22T07:21:18.292Z,17.6
2018-04-22T07:31:33.161Z,19.2
2018-04-22T07:41:47.099Z,20.2
2018-04-22T07:52:02.791Z,20.4
2018-04-22T08:02:18.287Z,21.2
2018-04-22T08:12:33.218Z,21.8
2018-04-22T08:22:48.440Z,23.2
2018-04-22T08:33:04.298Z,23.3
2018-04-22T08:43:19.199Z,23.6
2018-04-22T08:53:34.123Z,23.7
2018-04-22T09:03:48.550Z,22.6
2018-04-22T09:14:04.143Z,23.6
2018-04-22T09:24:18.110Z,23.6
2018-04-22T09:34:32.167Z,24.4
2018-04-22T09:44:47.350Z,24.6
2018-04-22T09:55:02.295Z,25.7
2018-04-22T10:05:18.015Z,25
2018-04-22T10:15:32.787Z,25.1
2018-04-22T10:25:48.363Z,25.7
2018-04-22T10:36:04.283Z,26.2
2018-04-22T10:46:18.619Z,26.2
2018-04-22T10:56:33.129Z,26.6
2018-04-22T11:06:48.671Z,26.4
2018-04-22T11:17:04.427Z,26.3
2018-04-22T11:27:18.668Z,26
2018-04-22T11:37:34.153Z,27.1
2018-04-22T11:47:48.272Z,27.6
2018-04-22T11:58:03.446Z,27.6
2018-04-22T12:08:19.408Z,27.1
2018-04-22T12:18:34.929Z,28.7
2018-04-22T12:28:50.340Z,27.8
2018-04-22T12:39:05.508Z,28.7
2018-04-22T12:49:20.227Z,28.3
2018-04-22T12:59:34.925Z,29.8
2018-04-22T13:09:49.550Z,28.7
2018-04-22T13:20:03.703Z,29.3
2018-04-22T13:30:19.243Z,28.8
2018-04-22T13:40:33.912Z,27.6
2018-04-22T13:50:49.780Z,26.5
2018-04-22T14:01:03.760Z,26
2018-04-22T14:11:18.874Z,25.4
2018-04-22T14:21:34.536Z,23.8
2018-04-22T14:31:49.331Z,25.8
2018-04-22T14:42:04.381Z,28.6
2018-04-22T14:52:18.058Z,28.2
2018-04-22T15:02:32.788Z,27.8
2018-04-22T15:12:48.001Z,27.6
2018-04-22T15:23:03.077Z,25.6
2018-04-22T15:33:18.041Z,24.5
2018-04-22T15:43:33.506Z,24
2018-04-22T15:53:47.713Z,24.7
2018-04-22T16:04:03.209Z,24.8
2018-04-22T16:14:18.827Z,23.5
2018-04-22T16:24:34.423Z,23.7
2018-04-22T16:34:49.732Z,22.8
2018-04-22T16:45:05.159Z,22.5
2018-04-22T16:55:20.286Z,22.4
2018-04-22T17:05:35.259Z,22.1
2018-04-22T17:15:49.838Z,21.7
2018-04-22T17:26:04.328Z,21.5
2018-04-22T17:36:18.238Z,21.3
2018-04-22T17:46:32.926Z,20.9
2018-04-22T17:56:48.653Z,20.4
2018-04-22T18:07:03.363Z,20.4
2018-04-22T18:17:17.217Z,20.2
2018-04-22T18:27:31.991Z,20.2
2018-04-22T18:37:46.222Z,20.2
2018-04-22T18:48:00.605Z,19.4
2018-04-22T18:58:14.577Z,17.9
2018-04-22T19:08:30.030Z,16.7
2018-04-22T19:18:45.734Z,16
2018-04-22T19:29:01.366Z,16
2018-04-22T19:39:15.731Z,16
2018-04-22T19:49:31.320Z,15.8
2018-04-22T19:59:46.322Z,15.7
2018-04-22T20:10:01.009Z,15.3
2018-04-22T20:20:15.675Z,15.1
2018-04-22T20:30:31.372Z,15.1
2018-04-22T20:40:46.546Z,15
2018-04-22T20:51:01.707Z,14.8
2018-04-22T21:01:15.679Z,14.9
2018-04-22T21:11:30.204Z,14.9
2018-04-22T21:21:44.576Z,14.8
2018-04-22T21:31:58.547Z,14.7
2018-04-22T21:42:12.324Z,14.6
2018-04-22T21:52:27.316Z,14.5
2018-04-22T22:02:41.603Z,14.5
2018-04-22T22:12:56.369Z,14.3
2018-04-22T22:23:10.652Z,14.3
2018-04-22T22:33:24.518Z,14.3
2018-04-22T22:43:38.694Z,14.1
2018-04-22T22:53:53.654Z,14
2018-04-22T23:04:08.479Z,14.5
2018-04-22T23:14:23.841Z,14
2018-04-22T23:24:38.592Z,13.9
2018-04-22T23:34:53.746Z,14.2
2018-04-22T23:45:08.710Z,14.2
2018-04-22T23:55:22.451Z,14.5
